createdAt,value
2022-11-08T00:00:45.780Z,97915.13
2022-11-08T00:03:14.281Z,97915.69
2022-11-08T00:06:00.881Z,97918.09
2022-11-08T00:08:47.516Z,97915.19
2022-11-08T00:11:34.162Z,97911.84
2022-11-08T00:14:03.241Z,97915.81
2022-11-08T00:16:31.707Z,97909.91
2022-11-08T00:19:00.098Z,97905.22
2022-11-08T00:21:28.553Z,97901.34
2022-11-08T00:23:56.903Z,97901.56
2022-11-08T00:26:25.375Z,97890.69
2022-11-08T00:28:53.871Z,97896.25
2022-11-08T00:31:22.248Z,97907.06
2022-11-08T00:33:50.690Z,97912.28
2022-11-08T00:36:19.071Z,97911.53
2022-11-08T00:38:47.595Z,97911.66
2022-11-08T00:41:15.928Z,97920.03
2022-11-08T00:43:44.346Z,97910.81
2022-11-08T00:46:12.724Z,97912.50
2022-11-08T00:48:41.182Z,97908.31
2022-11-08T00:51:10.966Z,97907.81
2022-11-08T00:53:39.905Z,97909.91
2022-11-08T00:56:10.879Z,97914.97
2022-11-08T00:58:39.449Z,97911.78
2022-11-08T01:01:15.698Z,97910.91
2022-11-08T01:03:44.514Z,97906.94
2022-11-08T01:06:13.469Z,97905.78
2022-11-08T01:08:42.027Z,97909.50
2022-11-08T01:11:14.040Z,97898.00
2022-11-08T01:13:42.492Z,97891.94
2022-11-08T01:16:13.082Z,97904.78
2022-11-08T01:18:41.452Z,97901.13
2022-11-08T01:21:10.576Z,97901.72
2022-11-08T01:23:38.958Z,97897.03
2022-11-08T01:26:09.810Z,97891.94
2022-11-08T01:28:38.342Z,97890.41
2022-11-08T01:31:08.495Z,97899.06
2022-11-08T01:33:37.235Z,97891.72
2022-11-08T01:36:09.576Z,97896.41
2022-11-08T01:38:37.940Z,97895.72
2022-11-08T01:41:06.641Z,97899.78
2022-11-08T01:43:48.874Z,97888.56
2022-11-08T01:46:20.350Z,97892.50
2022-11-08T01:49:11.887Z,97898.25
2022-11-08T01:52:05.188Z,97891.22
2022-11-08T01:54:59.749Z,97884.75
2022-11-08T01:57:43.798Z,97887.50
2022-11-08T02:00:15.479Z,97885.69
2022-11-08T02:02:44.665Z,97887.69
2022-11-08T02:05:26.463Z,97880.72
2022-11-08T02:07:58.664Z,97882.16
2022-11-08T02:10:34.439Z,97883.75
2022-11-08T02:13:05.153Z,97875.56
2022-11-08T02:15:34.737Z,97873.56
2022-11-08T02:18:03.124Z,97871.91
2022-11-08T02:20:32.461Z,97873.84
2022-11-08T02:23:13.289Z,97877.00
2022-11-08T02:25:41.713Z,97879.28
2022-11-08T02:28:10.105Z,97874.53
2022-11-08T02:30:38.910Z,97874.13
2022-11-08T02:33:17.936Z,97886.50
2022-11-08T02:35:48.912Z,97886.06
2022-11-08T02:38:18.525Z,97891.94
2022-11-08T02:40:53.676Z,97893.97
2022-11-08T02:43:22.518Z,97893.97
2022-11-08T02:45:51.323Z,97896.69
2022-11-08T02:48:20.524Z,97892.72
2022-11-08T02:50:49.226Z,97903.00
2022-11-08T02:53:17.835Z,97902.66
2022-11-08T02:55:46.307Z,97894.09
2022-11-08T02:58:14.897Z,97888.19
2022-11-08T03:00:43.403Z,97895.69
2022-11-08T03:03:11.771Z,97888.00
2022-11-08T03:05:40.162Z,97887.56
2022-11-08T03:08:08.540Z,97893.44
2022-11-08T03:10:37.645Z,97885.72
2022-11-08T03:13:06.805Z,97899.31
2022-11-08T03:15:35.311Z,97888.50
2022-11-08T03:18:03.897Z,97897.88
2022-11-08T03:20:33.321Z,97890.97
2022-11-08T03:23:03.812Z,97898.09
2022-11-08T03:25:32.175Z,97900.06
2022-11-08T03:28:07.097Z,97906.31
2022-11-08T03:30:35.608Z,97909.50
2022-11-08T03:33:04.214Z,97912.44
2022-11-08T03:35:32.639Z,97917.59
2022-11-08T03:38:01.052Z,97914.34
2022-11-08T03:40:29.386Z,97913.78
2022-11-08T03:42:58.018Z,97908.75
2022-11-08T03:45:26.548Z,97916.56
2022-11-08T03:47:54.951Z,97905.88
2022-11-08T03:50:23.309Z,97913.03
2022-11-08T03:52:53.676Z,97914.91
2022-11-08T03:55:24.758Z,97909.50
2022-11-08T03:57:54.579Z,97907.88
2022-11-08T04:00:25.992Z,97917.81
2022-11-08T04:02:55.776Z,97919.53
2022-11-08T04:05:24.165Z,97913.22
2022-11-08T04:07:52.604Z,97909.16
2022-11-08T04:10:21.000Z,97917.38
2022-11-08T04:13:07.816Z,97915.44
2022-11-08T04:15:36.265Z,97920.88
2022-11-08T04:18:23.424Z,97912.19
2022-11-08T04:21:10.170Z,97913.81
2022-11-08T04:23:38.847Z,97908.38
2022-11-08T04:26:08.737Z,97908.97
2022-11-08T04:28:37.830Z,97906.19
2022-11-08T04:31:14.517Z,97911.38
2022-11-08T04:33:43.500Z,97912.97
2022-11-08T04:36:14.196Z,97914.56
2022-11-08T04:38:42.681Z,97917.66
2022-11-08T04:41:12.800Z,97911.59
2022-11-08T04:43:41.359Z,97915.50
2022-11-08T04:46:14.163Z,97913.22
2022-11-08T04:48:43.158Z,97931.31
2022-11-08T04:51:16.234Z,97927.91
2022-11-08T04:53:44.611Z,97923.75
2022-11-08T04:56:14.783Z,97925.91
2022-11-08T04:58:44.518Z,97920.53
2022-11-08T05:01:14.793Z,97921.41
2022-11-08T05:03:43.259Z,97932.03
2022-11-08T05:06:13.172Z,97926.09
2022-11-08T05:08:41.614Z,97934.09
2022-11-08T05:11:11.980Z,97929.88
2022-11-08T05:13:40.726Z,97930.06
2022-11-08T05:16:14.381Z,97925.34
2022-11-08T05:18:42.854Z,97920.97
2022-11-08T05:21:31.158Z,97922.34
2022-11-08T05:23:59.715Z,97916.56
2022-11-08T05:26:28.185Z,97918.91
2022-11-08T05:28:56.605Z,97920.25
2022-11-08T05:31:24.999Z,97925.09
2022-11-08T05:33:53.569Z,97927.78
2022-11-08T05:36:21.994Z,97928.56
2022-11-08T05:38:50.433Z,97931.50
2022-11-08T05:41:20.838Z,97920.97
2022-11-08T05:43:51.030Z,97929.00
2022-11-08T05:46:19.822Z,97928.69
2022-11-08T05:48:48.976Z,97930.44
2022-11-08T05:51:18.032Z,97931.22
2022-11-08T05:53:49.000Z,97937.97
2022-11-08T05:56:17.780Z,97940.03
2022-11-08T05:58:46.237Z,97942.78
2022-11-08T06:01:18.499Z,97939.41
2022-11-08T06:03:47.069Z,97957.97
2022-11-08T06:06:19.982Z,97951.41
2022-11-08T06:08:50.582Z,97947.97
2022-11-08T06:11:24.754Z,97962.91
2022-11-08T06:13:53.395Z,97961.75
2022-11-08T06:16:22.755Z,97966.03
2022-11-08T06:18:51.134Z,97961.03
2022-11-08T06:21:20.349Z,97965.13
2022-11-08T06:23:48.840Z,97963.13
2022-11-08T06:26:17.323Z,97974.34
2022-11-08T06:28:45.741Z,97961.53
2022-11-08T06:31:14.214Z,97976.81
2022-11-08T06:33:43.383Z,97972.91
2022-11-08T06:36:11.780Z,97981.75
2022-11-08T06:38:40.224Z,97974.22
2022-11-08T06:41:09.729Z,97985.19
2022-11-08T06:43:38.199Z,97986.72
2022-11-08T06:46:07.757Z,97985.69
2022-11-08T06:48:36.439Z,97992.34
2022-11-08T06:51:05.045Z,97989.81
2022-11-08T06:53:33.643Z,97997.78
2022-11-08T06:56:02.582Z,98003.19
2022-11-08T06:58:31.723Z,98010.88
2022-11-08T07:01:04.020Z,98012.00
2022-11-08T07:03:33.119Z,98007.84
2022-11-08T07:06:03.327Z,98020.38
2022-11-08T07:08:32.647Z,98013.81
2022-11-08T07:11:01.570Z,98010.09
2022-11-08T07:13:30.150Z,98015.88
2022-11-08T07:15:59.563Z,98014.16
2022-11-08T07:18:28.241Z,98010.09
2022-11-08T07:21:00.607Z,98000.97
2022-11-08T07:23:29.369Z,98006.81
2022-11-08T07:26:01.574Z,98010.19
2022-11-08T07:28:30.069Z,97997.00
2022-11-08T07:31:00.353Z,97999.59
2022-11-08T07:33:28.874Z,97997.44
2022-11-08T07:35:57.269Z,98005.41
2022-11-08T07:38:26.585Z,97998.59
2022-11-08T07:40:58.981Z,98000.53
2022-11-08T07:43:28.136Z,97995.50
2022-11-08T07:46:01.477Z,97986.31
2022-11-08T07:48:30.345Z,97992.34
2022-11-08T07:50:58.868Z,97983.53
2022-11-08T07:53:27.402Z,97988.22
2022-11-08T07:55:55.835Z,97987.09
2022-11-08T07:58:24.320Z,97988.28
2022-11-08T08:00:52.825Z,97992.75
2022-11-08T08:03:21.685Z,97985.19
2022-11-08T08:05:59.421Z,97994.88
2022-11-08T08:08:29.563Z,97998.34
2022-11-08T08:10:59.501Z,97991.41
2022-11-08T08:13:28.220Z,98005.47
2022-11-08T08:16:01.038Z,97996.38
2022-11-08T08:18:30.089Z,97999.78
2022-11-08T08:20:58.687Z,97994.59
2022-11-08T08:23:28.315Z,97995.75
2022-11-08T08:25:57.825Z,97999.50
2022-11-08T08:28:26.309Z,97993.41
2022-11-08T08:30:54.747Z,97991.97
2022-11-08T08:33:30.295Z,97996.03
2022-11-08T08:36:01.386Z,97995.84
2022-11-08T08:38:33.356Z,98000.47
2022-11-08T08:41:02.628Z,97995.19
2022-11-08T08:43:32.846Z,97989.53
2022-11-08T08:46:05.635Z,97999.91
2022-11-08T08:48:34.379Z,97997.22
2022-11-08T08:51:02.868Z,98000.59
2022-11-08T08:53:31.362Z,97988.28
2022-11-08T08:55:59.878Z,97992.00
2022-11-08T08:58:28.366Z,97994.00
2022-11-08T09:03:50.348Z,97989.97
2022-11-08T09:06:18.739Z,97998.31
2022-11-08T09:08:47.176Z,97991.44
2022-11-08T09:11:15.676Z,97994.09
2022-11-08T09:13:44.186Z,98001.03
2022-11-08T09:16:14.069Z,97999.28
2022-11-08T09:18:42.648Z,97996.91
2022-11-08T09:21:11.166Z,97994.38
2022-11-08T09:23:41.857Z,97986.16
2022-11-08T09:26:10.761Z,97983.47
2022-11-08T09:28:39.231Z,97987.72
2022-11-08T09:31:10.330Z,97978.44
2022-11-08T09:33:39.460Z,97986.44
2022-11-08T09:36:08.919Z,97975.34
2022-11-08T09:38:37.440Z,97972.69
2022-11-08T09:41:18.044Z,97976.28
2022-11-08T09:44:02.179Z,97967.19
2022-11-08T09:46:49.919Z,97967.34
2022-11-08T09:49:21.978Z,97967.19
2022-11-08T09:51:50.681Z,97957.59
2022-11-08T09:54:23.331Z,97958.63
2022-11-08T09:56:52.794Z,97956.38
2022-11-08T09:59:21.057Z,97948.31
2022-11-08T10:01:49.541Z,97949.44
2022-11-08T10:04:26.703Z,97948.41
2022-11-08T10:07:20.013Z,97941.22
2022-11-08T10:10:03.365Z,97936.09
2022-11-08T10:12:50.639Z,97936.38
2022-11-08T10:15:47.358Z,97930.25
2022-11-08T10:18:28.070Z,97923.03
2022-11-08T10:21:35.091Z,97921.66
2022-11-08T10:24:05.760Z,97917.78
2022-11-08T10:26:46.062Z,97913.81
2022-11-08T10:29:21.057Z,97915.41
2022-11-08T10:31:57.405Z,97914.22
2022-11-08T10:34:27.415Z,97915.34
2022-11-08T10:37:00.585Z,97914.84
2022-11-08T10:39:29.173Z,97917.78
2022-11-08T10:42:10.805Z,97910.81
2022-11-08T10:44:40.005Z,97899.03
2022-11-08T10:47:14.496Z,97910.22
2022-11-08T10:49:43.748Z,97906.22
2022-11-08T10:52:12.246Z,97901.09
2022-11-08T10:54:45.202Z,97894.91
2022-11-08T10:57:16.008Z,97894.66
2022-11-08T10:59:45.079Z,97885.94
2022-11-08T11:02:39.621Z,97891.84
2022-11-08T11:05:16.814Z,97878.34
2022-11-08T11:07:46.548Z,97874.97
2022-11-08T11:10:23.990Z,97877.19
2022-11-08T11:13:12.731Z,97874.09
2022-11-08T11:15:46.348Z,97872.28
2022-11-08T11:18:25.288Z,97861.66
2022-11-08T11:21:15.511Z,97859.56
2022-11-08T11:23:50.492Z,97866.81
2022-11-08T11:26:41.079Z,97856.09
2022-11-08T11:29:16.848Z,97858.47
2022-11-08T11:31:47.431Z,97860.72
2022-11-08T11:34:21.354Z,97854.16
2022-11-08T11:37:06.134Z,97856.91
2022-11-08T11:39:49.846Z,97855.84
2022-11-08T11:42:45.042Z,97854.06
2022-11-08T11:45:20.159Z,97851.75
2022-11-08T11:48:11.476Z,97843.91
2022-11-08T11:50:41.051Z,97853.44
2022-11-08T11:53:28.391Z,97843.91
2022-11-08T11:56:31.745Z,97846.94
2022-11-08T11:59:35.405Z,97851.22
2022-11-08T12:02:09.901Z,97842.28
2022-11-08T12:05:13.941Z,97843.53
2022-11-08T12:07:50.643Z,97838.03
2022-11-08T12:10:26.640Z,97834.69
2022-11-08T12:12:54.984Z,97829.22
2022-11-08T12:15:39.017Z,97827.13
2022-11-08T12:18:42.091Z,97826.44
2022-11-08T12:21:33.267Z,97827.28
2022-11-08T12:24:24.495Z,97832.97
2022-11-08T12:27:14.252Z,97831.13
2022-11-08T12:30:08.975Z,97826.31
2022-11-08T12:32:46.371Z,97827.53
2022-11-08T12:35:37.311Z,97819.47
2022-11-08T12:38:11.785Z,97832.00
2022-11-08T12:40:55.728Z,97821.59
2022-11-08T12:43:30.304Z,97827.34
2022-11-08T12:46:10.612Z,97826.56
2022-11-08T12:48:47.658Z,97825.63
2022-11-08T12:51:21.783Z,97828.94
2022-11-08T12:54:25.963Z,97830.84
2022-11-08T12:56:55.716Z,97829.16
2022-11-08T12:59:28.775Z,97825.03
2022-11-08T13:01:57.177Z,97827.06
2022-11-08T13:04:47.307Z,97829.31
2022-11-08T13:07:41.228Z,97825.53
2022-11-08T13:10:23.212Z,97826.00
2022-11-08T13:13:20.832Z,97826.28
2022-11-08T13:16:09.265Z,97830.88
2022-11-08T13:18:44.634Z,97831.91
2022-11-08T13:21:38.568Z,97821.13
2022-11-08T13:24:24.375Z,97833.09
2022-11-08T13:27:16.378Z,97836.69
2022-11-08T13:29:44.876Z,97833.97
2022-11-08T13:32:21.792Z,97824.28
2022-11-08T13:35:12.366Z,97835.78
2022-11-08T13:38:02.904Z,97830.91
2022-11-08T13:41:09.455Z,97839.97
2022-11-08T13:43:37.972Z,97845.72
2022-11-08T13:46:27.598Z,97841.13
2022-11-08T13:48:58.760Z,97835.63
2022-11-08T13:51:39.931Z,97841.16
2022-11-08T13:54:23.174Z,97839.59
2022-11-08T13:56:55.821Z,97840.88
2022-11-08T13:59:33.432Z,97844.31
2022-11-08T14:02:05.815Z,97837.47
2022-11-08T14:04:38.921Z,97833.50
2022-11-08T14:07:24.787Z,97845.78
2022-11-08T14:10:10.837Z,97834.97
2022-11-08T14:12:50.363Z,97830.59
2022-11-08T14:15:30.319Z,97841.06
2022-11-08T14:18:26.309Z,97841.47
2022-11-08T14:20:55.306Z,97847.22
2022-11-08T14:23:36.944Z,97853.94
2022-11-08T14:26:14.010Z,97850.13
2022-11-08T14:28:43.972Z,97845.75
2022-11-08T14:31:32.478Z,97846.78
2022-11-08T14:34:01.086Z,97851.63
2022-11-08T14:36:30.746Z,97846.66
2022-11-08T14:39:17.390Z,97851.81
2022-11-08T14:41:46.474Z,97854.44
2022-11-08T14:44:15.954Z,97857.19
2022-11-08T14:46:44.431Z,97857.22
2022-11-08T14:49:16.091Z,97857.69
2022-11-08T14:51:44.683Z,97861.28
2022-11-08T14:54:20.854Z,97864.47
2022-11-08T14:56:50.748Z,97866.69
2022-11-08T14:59:19.537Z,97859.72
2022-11-08T15:01:49.181Z,97855.47
2022-11-08T15:04:19.987Z,97853.56
2022-11-08T15:06:53.211Z,97857.47
2022-11-08T15:09:32.534Z,97853.34
2022-11-08T15:12:02.319Z,97864.06
2022-11-08T15:14:32.595Z,97857.38
2022-11-08T15:17:03.412Z,97865.41
2022-11-08T15:19:32.109Z,97865.69
2022-11-08T15:22:02.108Z,97864.22
2022-11-08T15:24:40.495Z,97863.03
2022-11-08T15:27:12.102Z,97875.97
2022-11-08T15:30:02.938Z,97874.47
2022-11-08T15:32:36.871Z,97866.47
2022-11-08T15:35:05.873Z,97869.84
2022-11-08T15:37:39.172Z,97887.56
2022-11-08T15:40:21.693Z,97881.59
2022-11-08T15:42:51.348Z,97882.22
2022-11-08T15:45:22.235Z,97880.53
2022-11-08T15:47:50.606Z,97892.94
2022-11-08T15:50:30.344Z,97892.38
2022-11-08T15:53:00.462Z,97896.00
2022-11-08T15:55:36.696Z,97900.09
2022-11-08T15:58:05.433Z,97901.63
2022-11-08T16:00:36.650Z,97899.94
2022-11-08T16:03:05.316Z,97899.47
2022-11-08T16:05:33.794Z,97900.00
2022-11-08T16:08:02.303Z,97896.69
2022-11-08T16:10:41.450Z,97905.78
2022-11-08T16:13:38.184Z,97902.53
2022-11-08T16:16:14.434Z,97899.88
2022-11-08T16:18:43.238Z,97903.84
2022-11-08T16:21:12.453Z,97894.44
2022-11-08T16:23:40.905Z,97893.84
2022-11-08T16:26:14.369Z,97899.88
2022-11-08T16:28:42.975Z,97905.19
2022-11-08T16:31:16.315Z,97909.59
2022-11-08T16:33:45.616Z,97913.28
2022-11-08T16:36:24.781Z,97911.06
2022-11-08T16:38:56.971Z,97913.06
2022-11-08T16:41:25.816Z,97920.72
2022-11-08T16:43:54.374Z,97924.22
2022-11-08T16:46:23.023Z,97923.19
2022-11-08T16:49:00.571Z,97924.28
2022-11-08T16:51:30.872Z,97928.38
2022-11-08T16:53:59.440Z,97923.00
2022-11-08T16:56:27.977Z,97926.66
2022-11-08T16:58:56.448Z,97935.00
2022-11-08T17:01:31.081Z,97933.28
2022-11-08T17:03:59.719Z,97929.00
2022-11-08T17:06:28.795Z,97927.91
2022-11-08T17:08:57.635Z,97930.59
2022-11-08T17:11:26.095Z,97941.75
2022-11-08T17:13:55.569Z,97929.66
2022-11-08T17:16:24.052Z,97933.06
2022-11-08T17:18:53.870Z,97940.97
2022-11-08T17:21:43.831Z,97940.84
2022-11-08T17:24:16.998Z,97938.25
2022-11-08T17:26:50.238Z,97949.78
2022-11-08T17:29:19.266Z,97945.47
2022-11-08T17:31:49.226Z,97945.69
2022-11-08T17:34:18.247Z,97948.88
2022-11-08T17:36:46.696Z,97950.09
2022-11-08T17:39:15.475Z,97945.56
2022-11-08T17:41:44.299Z,97944.66
2022-11-08T17:44:12.991Z,97951.00
2022-11-08T17:46:41.388Z,97948.06
2022-11-08T17:49:10.661Z,97945.72
2022-11-08T17:51:39.214Z,97951.00
2022-11-08T17:54:09.246Z,97942.47
2022-11-08T17:56:38.113Z,97943.94
2022-11-08T17:59:06.749Z,97951.59
2022-11-08T18:01:35.463Z,97951.47
2022-11-08T18:04:04.336Z,97958.56
2022-11-08T18:06:32.928Z,97947.97
2022-11-08T18:09:01.412Z,97953.22
2022-11-08T18:11:29.987Z,97951.94
2022-11-08T18:13:58.464Z,97956.09
2022-11-08T18:16:27.941Z,97954.97
2022-11-08T18:18:59.489Z,97945.41
2022-11-08T18:21:28.064Z,97949.00
2022-11-08T18:24:00.132Z,97951.59
2022-11-08T18:26:28.822Z,97957.22
2022-11-08T18:28:57.483Z,97959.47
2022-11-08T18:31:26.556Z,97957.78
2022-11-08T18:33:55.109Z,97954.28
2022-11-08T18:36:25.147Z,97950.44
2022-11-08T18:38:55.057Z,97949.81
2022-11-08T18:41:25.702Z,97949.34
2022-11-08T18:43:54.398Z,97947.66
2022-11-08T18:46:23.954Z,97957.25
2022-11-08T18:48:52.534Z,97946.72
2022-11-08T18:51:22.285Z,97948.56
2022-11-08T18:53:52.721Z,97948.31
2022-11-08T18:56:21.627Z,97953.72
2022-11-08T18:58:50.125Z,97957.09
2022-11-08T19:01:18.724Z,97956.75
2022-11-08T19:03:47.151Z,97959.34
2022-11-08T19:06:15.700Z,97958.59
2022-11-08T19:08:44.157Z,97963.44
2022-11-08T19:11:13.463Z,97970.84
2022-11-08T19:13:42.188Z,97973.66
2022-11-08T19:16:15.874Z,97966.22
2022-11-08T19:18:45.112Z,97961.41
2022-11-08T19:21:16.988Z,97971.16
2022-11-08T19:23:46.340Z,97973.84
2022-11-08T19:26:22.226Z,97978.19
2022-11-08T19:28:50.726Z,97978.22
2022-11-08T19:31:20.184Z,97976.59
2022-11-08T19:33:49.330Z,97980.09
2022-11-08T19:36:27.113Z,97980.38
2022-11-08T19:38:58.849Z,97975.56
2022-11-08T19:41:28.542Z,97976.28
2022-11-08T19:43:58.680Z,97974.53
2022-11-08T19:46:29.444Z,97974.34
2022-11-08T19:48:59.247Z,97978.78
2022-11-08T19:51:29.319Z,97985.41
2022-11-08T19:53:59.593Z,97973.84
2022-11-08T19:56:50.013Z,97981.72
2022-11-08T19:59:17.519Z,97977.91
2022-11-08T20:01:47.094Z,97987.13
2022-11-08T20:04:15.677Z,97981.41
2022-11-08T20:06:45.068Z,97981.78
2022-11-08T20:09:13.817Z,97982.88
2022-11-08T20:11:42.447Z,97981.63
2022-11-08T20:14:12.437Z,97975.38
2022-11-08T20:16:42.226Z,97982.59
2022-11-08T20:19:13.031Z,97983.97
2022-11-08T20:21:42.801Z,97986.75
2022-11-08T20:24:11.299Z,97989.53
2022-11-08T20:26:41.705Z,97989.81
2022-11-08T20:29:11.012Z,97993.09
2022-11-08T20:31:42.308Z,97980.44
2022-11-08T20:34:13.253Z,97984.41
2022-11-08T20:36:44.350Z,97981.38
2022-11-08T20:39:14.273Z,97980.41
2022-11-08T20:41:42.808Z,97983.91
2022-11-08T20:44:12.079Z,97986.50
2022-11-08T20:46:40.644Z,97991.84
2022-11-08T20:49:09.213Z,97986.50
2022-11-08T20:51:37.835Z,97985.78
2022-11-08T20:54:06.531Z,97986.22
2022-11-08T20:56:34.999Z,97985.19
2022-11-08T20:59:03.795Z,97977.03
2022-11-08T21:01:33.219Z,97979.00
2022-11-08T21:04:01.852Z,97984.19
2022-11-08T21:06:35.606Z,97979.75
2022-11-08T21:09:29.973Z,97982.78
2022-11-08T21:11:54.607Z,97985.44
2022-11-08T21:14:24.717Z,97976.88
2022-11-08T21:17:20.374Z,97983.03
2022-11-08T21:19:41.705Z,97981.03
2022-11-08T21:22:16.528Z,97974.44
2022-11-08T21:24:46.546Z,97973.41
2022-11-08T21:27:15.822Z,97979.72
2022-11-08T21:29:44.401Z,97976.03
2022-11-08T21:32:12.823Z,97975.97
2022-11-08T21:34:46.253Z,97975.72
2022-11-08T21:37:15.717Z,97975.84
2022-11-08T21:39:44.215Z,97972.81
2022-11-08T21:42:12.633Z,97975.00
2022-11-08T21:44:41.080Z,97980.78
2022-11-08T21:47:09.977Z,97981.25
2022-11-08T21:49:38.432Z,97970.34
2022-11-08T21:52:06.954Z,97974.47
2022-11-08T21:54:35.467Z,97975.47
2022-11-08T21:57:04.911Z,97976.97
2022-11-08T21:59:33.412Z,97974.13
2022-11-08T22:02:01.911Z,97974.00
2022-11-08T22:04:30.525Z,97975.00
2022-11-08T22:06:58.971Z,97961.41
2022-11-08T22:09:27.416Z,97971.66
2022-11-08T22:11:56.044Z,97970.28
2022-11-08T22:14:24.481Z,97972.09
2022-11-08T22:16:52.934Z,97976.16
2022-11-08T22:19:21.459Z,97972.25
2022-11-08T22:21:49.954Z,97981.13
2022-11-08T22:24:20.679Z,97979.94
2022-11-08T22:26:50.046Z,97968.22
2022-11-08T22:29:18.605Z,97970.91
2022-11-08T22:31:47.137Z,97971.16
2022-11-08T22:34:15.662Z,97966.06
2022-11-08T22:36:45.573Z,97970.34
2022-11-08T22:39:15.390Z,97964.72
2022-11-08T22:41:44.522Z,97970.31
2022-11-08T22:44:13.230Z,97964.25
2022-11-08T22:46:42.444Z,97968.78
2022-11-08T22:49:11.179Z,97979.28
2022-11-08T22:51:39.820Z,97973.16
2022-11-08T22:54:08.286Z,97970.91
2022-11-08T22:56:37.005Z,97973.75
2022-11-08T22:59:05.564Z,97973.31
2022-11-08T23:01:34.388Z,97970.66
2022-11-08T23:04:02.966Z,97970.56
2022-11-08T23:06:31.362Z,97976.63
2022-11-08T23:08:59.864Z,97977.66
2022-11-08T23:11:46.539Z,97976.53
2022-11-08T23:14:37.052Z,97973.50
2022-11-08T23:17:07.367Z,97973.84
2022-11-08T23:19:54.075Z,97978.13
2022-11-08T23:22:42.274Z,97980.25
2022-11-08T23:25:11.670Z,97978.88
2022-11-08T23:27:58.687Z,97975.66
2022-11-08T23:30:45.347Z,97982.41
2022-11-08T23:33:13.912Z,97984.22
2022-11-08T23:36:02.185Z,97983.91
2022-11-08T23:38:30.607Z,97981.97
2022-11-08T23:41:18.187Z,97987.44
2022-11-08T23:44:04.953Z,97981.69
2022-11-08T23:46:33.406Z,97981.69
2022-11-08T23:49:03.049Z,97979.91
2022-11-08T23:51:31.663Z,97982.25
2022-11-08T23:54:00.046Z,97984.06
2022-11-08T23:56:28.502Z,97986.69
2022-11-08T23:58:58.934Z,97989.28
